Aguilares, Texas
Current Conditions -  °F | °C
As of 5:55 PM on Wednesday 28 Jan 2015 (Local Time) from KHBV Reporting Station
Clear Clear  
Wind Chill: 74°   Ceiling: Unl
Heat Index: 74°   Visibility: 10mi
Dew Point: 43°   Wind: 10mph
Humidity: 32%   Direction: 140°SE
Pressure: 30.09"   Gusts: NA
Location:  27.4459°N, 99.0184°W
Report Text: KHBV 282355Z AUTO 14009KT 10SM CLR 23/06 A3009 RMK AO2 T02330059
Loading
Personal Weather Stations






























Interactive Weather Map New forecast layout! Learn more

10-Day Weather Forecast

Advertisements
Track Severe Weather on mobile